Time;durP1;ratioP1;P1;durP2;ratioP2;P2;SDS_P1;SDS_P2;PMS_P1;PMS_P2;Temp;Humidity;BMP_temperature;BMP_pressure;BME280_temperature;BME280_humidity;BME280_pressure;Samples;Min_cycle;Max_cycle;Signal;HPM_P1;HPM_P2
2022/02/12 00:01:30;;;;;;;21.50;8.80;;;;;;;-4.09;91.54;99000.63;5102731;28;20032;-60
2022/02/12 00:03:56;;;;;;;18.77;8.55;;;;;;;-4.22;92.24;99006.00;5079532;28;20045;-60
2022/02/12 00:06:23;;;;;;;19.80;8.30;;;;;;;-4.28;91.52;98991.44;5069548;28;20044;-61
2022/02/12 00:08:49;;;;;;;15.48;7.78;;;;;;;-4.19;92.16;98989.91;5076146;28;20062;-61
2022/02/12 00:11:17;;;;;;;17.00;7.85;;;;;;;-4.09;92.86;98993.50;5084989;28;20392;-61
2022/02/12 00:13:43;;;;;;;20.85;8.10;;;;;;;-4.28;91.69;98995.91;5084674;28;20028;-61
2022/02/12 00:16:10;;;;;;;11.60;6.50;;;;;;;-4.31;91.27;98989.84;5066459;28;20562;-61
2022/02/12 00:18:37;;;;;;;14.75;6.50;;;;;;;-4.14;91.55;98985.09;5072585;28;20040;-61
2022/02/12 00:21:03;;;;;;;12.35;5.93;;;;;;;-4.16;91.54;98986.16;5085423;28;20066;-60
2022/02/12 00:23:30;;;;;;;15.10;7.85;;;;;;;-4.22;91.87;98987.47;5073193;28;20054;-59
2022/02/12 00:25:58;;;;;;;18.27;9.30;;;;;;;-4.24;92.03;98984.94;5085295;28;20056;-61
2022/02/12 00:28:24;;;;;;;19.23;8.18;;;;;;;-4.20;92.38;98990.88;5067991;28;20033;-60
2022/02/12 00:30:51;;;;;;;21.98;8.50;;;;;;;-4.15;92.17;98983.41;5066245;28;20753;-61
2022/02/12 00:33:18;;;;;;;18.98;8.75;;;;;;;-4.17;92.56;98980.03;5079734;28;20041;-59
2022/02/12 00:35:46;;;;;;;16.08;8.73;;;;;;;-4.09;92.94;98977.63;5089497;28;20055;-59
2022/02/12 00:38:12;;;;;;;15.68;9.20;;;;;;;-3.90;92.72;98975.38;5089006;28;20101;-61
2022/02/12 00:40:39;;;;;;;20.50;8.90;;;;;;;-3.81;92.21;98967.56;5089793;28;20043;-60
2022/02/12 00:43:05;;;;;;;14.48;7.47;;;;;;;-3.85;91.50;98967.91;5078878;28;20081;-60
2022/02/12 00:45:32;;;;;;;20.00;9.57;;;;;;;-3.90;91.47;98970.94;5100883;28;20039;-60
2022/02/12 00:47:58;;;;;;;14.15;8.25;;;;;;;-3.79;91.69;98967.44;5090876;28;20050;-61
2022/02/12 00:50:25;;;;;;;17.05;7.40;;;;;;;-3.71;91.04;98969.47;5089347;28;20036;-61
2022/02/12 00:52:51;;;;;;;14.40;7.32;;;;;;;-3.86;91.08;98972.38;5073369;28;20102;-61
2022/02/12 00:55:18;;;;;;;14.35;8.30;;;;;;;-4.07;91.05;98972.22;5086315;28;20036;-60
2022/02/12 00:57:44;;;;;;;14.00;6.88;;;;;;;-3.98;92.14;98982.09;5073754;28;20041;-61
2022/02/12 01:00:12;;;;;;;16.98;8.10;;;;;;;-4.00;92.17;98975.25;5095925;28;20040;-61
2022/02/12 01:02:38;;;;;;;16.77;8.95;;;;;;;-3.74;92.63;98972.38;5095686;28;20086;-60
2022/02/12 01:05:05;;;;;;;20.80;10.35;;;;;;;-3.80;91.81;98971.88;5082311;28;20040;-60
2022/02/12 01:07:33;;;;;;;14.55;8.20;;;;;;;-3.70;92.26;98972.00;5076782;28;20076;-59
2022/02/12 01:09:59;;;;;;;15.18;9.15;;;;;;;-3.86;90.46;98974.19;5085814;28;20048;-59
2022/02/12 01:12:26;;;;;;;17.60;8.30;;;;;;;-3.97;90.89;98972.38;5083372;28;20055;-60
2022/02/12 01:14:53;;;;;;;12.52;6.72;;;;;;;-3.97;91.09;98967.94;5088432;28;20078;-60
2022/02/12 01:17:20;;;;;;;14.23;6.72;;;;;;;-3.85;91.07;98966.13;5079614;28;20450;-59
2022/02/12 01:19:49;;;;;;;14.25;7.03;;;;;;;-3.79;90.83;98960.34;5068604;28;20051;-60
2022/02/12 01:22:16;;;;;;;14.88;7.47;;;;;;;-3.70;91.60;98957.91;5068450;28;20032;-60
2022/02/12 01:24:43;;;;;;;11.32;6.50;;;;;;;-3.80;90.75;98960.44;5078950;28;20043;-60
2022/02/12 01:27:10;;;;;;;12.25;7.28;;;;;;;-3.94;90.89;98956.25;5088658;28;20638;-61
2022/02/12 01:29:37;;;;;;;14.93;7.70;;;;;;;-4.02;91.44;98956.84;5077273;28;20040;-60
2022/02/12 01:32:04;;;;;;;13.88;8.30;;;;;;;-4.20;90.39;98949.34;5076109;28;20594;-60
2022/02/12 01:34:34;;;;;;;12.93;6.97;;;;;;;-4.15;90.99;98946.38;5078996;28;20075;-57
2022/02/12 01:37:06;;;;;;;14.43;7.03;;;;;;;-3.99;91.61;98950.50;5070739;28;20036;-59
2022/02/12 01:39:33;;;;;;;12.98;6.85;;;;;;;-4.02;91.50;98956.00;5076652;28;20068;-59
2022/02/12 01:42:00;;;;;;;17.88;8.05;;;;;;;-4.11;91.02;98946.97;5088471;28;20047;-60
2022/02/12 01:44:33;;;;;;;13.52;6.97;;;;;;;-4.33;90.11;98951.25;5077900;28;20036;-59
2022/02/12 01:47:00;;;;;;;11.18;5.88;;;;;;;-4.32;91.85;98950.31;5083301;28;20054;-60
2022/02/12 01:49:28;;;;;;;15.20;7.25;;;;;;;-4.18;93.02;98946.59;5098220;28;20040;-58
2022/02/12 01:51:55;;;;;;;14.07;7.20;;;;;;;-4.00;93.05;98943.47;5084398;28;20044;-60
2022/02/12 01:54:24;;;;;;;16.52;8.10;;;;;;;-4.07;91.61;98938.69;5079346;28;20040;-60
2022/02/12 01:56:51;;;;;;;13.95;7.70;;;;;;;-4.13;91.05;98944.44;5067310;28;20043;-60
2022/02/12 01:59:23;;;;;;;11.68;6.72;;;;;;;-4.06;90.84;98934.22;5072679;28;20056;-60
2022/02/12 02:01:50;;;;;;;12.75;6.40;;;;;;;-3.88;90.40;98937.25;5102122;28;20051;-60
2022/02/12 02:04:17;;;;;;;14.45;7.57;;;;;;;-4.15;89.47;98941.09;5075981;28;20679;-59
2022/02/12 02:06:44;;;;;;;12.98;6.50;;;;;;;-4.37;90.01;98934.81;5087989;28;20044;-59
2022/02/12 02:09:13;;;;;;;12.75;6.55;;;;;;;-4.51;90.78;98937.63;5079352;28;20120;-60
2022/02/12 02:11:41;;;;;;;12.20;5.95;;;;;;;-4.61;90.74;98933.06;5085818;28;20040;-60
2022/02/12 02:14:08;;;;;;;12.13;6.75;;;;;;;-4.35;91.22;98930.22;5083150;28;20109;-58
2022/02/12 02:16:35;;;;;;;14.02;7.60;;;;;;;-4.19;91.55;98937.84;5090829;28;20036;-59
2022/02/12 02:19:01;;;;;;;14.30;7.57;;;;;;;-4.35;90.60;98935.50;5092188;28;20055;-59
2022/02/12 02:21:29;;;;;;;15.15;6.32;;;;;;;-4.11;90.76;98929.31;5080686;28;20629;-59
2022/02/12 02:23:56;;;;;;;14.40;7.18;;;;;;;-3.94;90.22;98932.44;5068017;28;20676;-60
2022/02/12 02:26:22;;;;;;;13.57;7.90;;;;;;;-4.18;90.10;98918.34;5086249;28;20044;-60
2022/02/12 02:28:49;;;;;;;13.55;6.18;;;;;;;-4.45;88.92;98919.50;5079120;28;20036;-60
2022/02/12 02:31:16;;;;;;;13.43;8.10;;;;;;;-4.70;90.21;98915.25;5090970;28;21651;-60
2022/02/12 02:33:42;;;;;;;13.18;6.55;;;;;;;-4.62;90.57;98912.00;5080163;28;20430;-59
2022/02/12 02:36:10;;;;;;;11.50;7.00;;;;;;;-4.63;91.04;98913.84;5070768;28;20040;-58
2022/02/12 02:38:37;;;;;;;14.45;7.53;;;;;;;-4.74;91.24;98906.72;5087610;28;20093;-60
2022/02/12 02:41:03;;;;;;;12.48;6.32;;;;;;;-4.86;91.10;98903.19;5086819;28;20045;-59
2022/02/12 02:43:30;;;;;;;14.13;6.43;;;;;;;-4.77;91.36;98901.66;5071362;28;20051;-59
2022/02/12 02:45:57;;;;;;;15.38;6.80;;;;;;;-4.46;91.50;98901.13;5086948;28;20047;-59
2022/02/12 02:48:23;;;;;;;15.00;7.15;;;;;;;-4.36;90.88;98898.59;5067594;28;20044;-60
2022/02/12 02:56:19;;;;;;;12.95;5.88;;;;;;;-4.12;89.30;98895.88;5066980;28;20048;-60
2022/02/12 02:58:48;;;;;;;12.45;6.10;;;;;;;-4.25;89.45;98897.78;5068850;28;20044;-59
2022/02/12 03:01:17;;;;;;;13.18;6.40;;;;;;;-4.39;89.94;98883.81;5086433;28;20503;-57
2022/02/12 03:03:46;;;;;;;17.90;6.78;;;;;;;-4.21;89.70;98886.84;5083653;28;20075;-60
2022/02/12 03:06:14;;;;;;;15.75;7.00;;;;;;;-4.12;89.00;98885.28;5082368;28;20044;-59
2022/02/12 03:08:42;;;;;;;14.23;7.43;;;;;;;-4.08;89.04;98885.88;5082934;28;20044;-60
2022/02/12 03:11:11;;;;;;;11.85;6.13;;;;;;;-4.11;88.97;98886.13;5085909;28;20688;-60
2022/02/12 03:13:39;;;;;;;12.82;7.20;;;;;;;-4.25;89.56;98885.41;5080837;28;20048;-59
2022/02/12 03:16:08;;;;;;;11.27;6.72;;;;;;;-4.22;89.57;98886.97;5066365;28;20052;-59
2022/02/12 03:18:36;;;;;;;14.23;5.93;;;;;;;-4.02;89.18;98873.97;5070226;28;20139;-60
2022/02/12 03:21:03;;;;;;;9.82;6.22;;;;;;;-4.27;88.54;98868.81;5085860;28;20044;-61
2022/02/12 03:23:29;;;;;;;14.50;6.40;;;;;;;-4.46;89.56;98874.69;5082132;28;20089;-59
2022/02/12 03:25:56;;;;;;;10.88;6.20;;;;;;;-4.32;89.74;98873.59;5066094;28;20048;-60
2022/02/12 03:28:23;;;;;;;16.75;7.35;;;;;;;-4.38;89.27;98869.66;5068183;28;20122;-59
2022/02/12 03:30:49;;;;;;;12.32;6.90;;;;;;;-4.27;89.19;98863.53;5064397;28;20048;-60
2022/02/12 03:33:17;;;;;;;14.30;7.38;;;;;;;-4.29;88.42;98864.59;5081902;28;20036;-59
2022/02/12 03:35:45;;;;;;;12.05;6.45;;;;;;;-4.35;88.98;98864.09;5071953;28;20040;-60
2022/02/12 03:38:19;;;;;;;11.50;7.25;;;;;;;-4.39;88.73;98873.25;5080348;28;20462;-59
2022/02/12 03:40:49;;;;;;;12.55;7.57;;;;;;;-4.68;89.20;98857.84;5066196;28;20040;-61
2022/02/12 03:43:16;;;;;;;17.60;6.22;;;;;;;-5.01;88.44;98865.53;5082455;28;20055;-60
2022/02/12 03:45:44;;;;;;;14.60;6.45;;;;;;;-4.96;90.21;98859.91;5065147;28;20048;-60
2022/02/12 03:48:11;;;;;;;13.20;7.55;;;;;;;-4.94;89.93;98854.53;5081647;28;20673;-60
2022/02/12 03:50:39;;;;;;;16.50;8.32;;;;;;;-5.19;89.50;98856.38;5086188;28;20047;-61
2022/02/12 03:53:07;;;;;;;14.45;7.30;;;;;;;-5.32;90.52;98852.00;5070609;28;20102;-60
2022/02/12 03:55:37;;;;;;;13.85;8.10;;;;;;;-5.37;90.12;98848.84;5084870;28;20040;-61
2022/02/12 03:58:06;;;;;;;12.25;7.35;;;;;;;-5.46;90.30;98852.19;5069861;28;20119;-60
2022/02/12 04:00:34;;;;;;;14.88;7.13;;;;;;;-5.50;90.74;98848.91;5090714;28;20770;-61
2022/02/12 04:03:01;;;;;;;14.10;7.30;;;;;;;-5.45;91.23;98843.28;5074956;28;20083;-61
2022/02/12 04:05:29;;;;;;;16.88;7.57;;;;;;;-5.44;90.76;98840.53;5083904;28;20443;-61
2022/02/12 04:07:56;;;;;;;17.17;8.43;;;;;;;-5.43;90.90;98841.38;5072911;28;20044;-61
2022/02/12 04:10:22;;;;;;;16.63;7.65;;;;;;;-5.40;91.35;98834.09;5086365;28;20772;-60
2022/02/12 04:12:51;;;;;;;16.10;7.85;;;;;;;-5.31;91.10;98831.72;5085659;28;20047;-59
2022/02/12 04:15:19;;;;;;;19.05;9.70;;;;;;;-5.00;93.50;98830.25;5068613;28;20511;-60
2022/02/12 04:17:47;;;;;;;15.32;8.50;;;;;;;-5.11;90.67;98827.56;5076268;28;20097;-61
2022/02/12 04:20:16;;;;;;;14.90;8.32;;;;;;;-5.22;89.98;98817.81;5085875;28;20044;-60
2022/02/12 04:22:43;;;;;;;16.40;8.52;;;;;;;-5.10;91.38;98816.91;5075577;28;20056;-60
2022/02/12 04:25:12;;;;;;;18.95;8.43;;;;;;;-5.13;91.08;98811.00;5081537;28;20044;-60
2022/02/12 04:27:39;;;;;;;14.93;8.48;;;;;;;-5.12;91.15;98804.78;5068217;28;20442;-60
2022/02/12 04:30:07;;;;;;;12.70;6.97;;;;;;;-5.35;89.63;98800.25;5079277;28;20048;-61
2022/02/12 04:32:35;;;;;;;16.63;7.97;;;;;;;-5.43;90.66;98797.34;5081932;28;20495;-61
2022/02/12 04:35:03;;;;;;;15.75;7.85;;;;;;;-5.55;90.49;98801.75;5072666;28;20043;-61
2022/02/12 04:37:31;;;;;;;17.15;8.27;;;;;;;-5.43;90.87;98799.97;5081027;28;20055;-60
2022/02/12 04:39:58;;;;;;;13.35;8.05;;;;;;;-5.33;91.42;98801.94;5084548;28;20113;-61
2022/02/12 04:42:26;;;;;;;14.63;7.57;;;;;;;-5.38;90.70;98804.94;5082550;28;20044;-61
2022/02/12 04:44:54;;;;;;;13.73;8.00;;;;;;;-5.33;90.85;98801.94;5065446;28;20037;-59
2022/02/12 04:47:22;;;;;;;15.93;7.50;;;;;;;-5.34;90.42;98795.81;5078453;28;20036;-61
2022/02/12 04:49:49;;;;;;;17.30;8.30;;;;;;;-5.38;91.09;98800.47;5085719;28;20044;-60
2022/02/12 04:52:19;;;;;;;20.85;8.63;;;;;;;-5.69;89.31;98797.47;5083050;28;20036;-61
2022/02/12 04:54:46;;;;;;;16.60;7.22;;;;;;;-5.49;90.94;98788.06;5074603;28;20045;-60
2022/02/12 04:57:13;;;;;;;13.60;7.40;;;;;;;-5.62;89.88;98782.88;5080856;28;20052;-60
2022/02/12 04:59:41;;;;;;;16.65;7.78;;;;;;;-5.77;89.46;98779.56;5086566;28;20044;-65
2022/02/12 05:02:07;;;;;;;19.13;8.23;;;;;;;-5.78;90.13;98774.41;5097504;28;20036;-60
2022/02/12 05:04:36;;;;;;;19.55;9.50;;;;;;;-5.76;91.64;98777.75;5075900;28;20155;-59
2022/02/12 05:07:02;;;;;;;20.70;8.82;;;;;;;-5.80;91.17;98769.25;5078908;28;20546;-60
2022/02/12 05:09:31;;;;;;;19.08;9.18;;;;;;;-5.84;91.31;98780.13;5080680;28;20047;-59
2022/02/12 05:11:57;;;;;;;17.35;9.02;;;;;;;-5.61;91.49;98766.09;5084670;28;20070;-59
2022/02/12 05:14:29;;;;;;;16.77;8.77;;;;;;;-5.67;90.60;98773.63;5069719;28;20036;-60
2022/02/12 05:16:56;;;;;;;;;;;;;;;-5.77;90.34;98776.09;5078630;28;20105;-60
2022/02/12 05:19:22;;;;;;;17.58;7.78;;;;;;;-5.88;90.18;98771.59;5077170;28;19931;-60
2022/02/12 05:21:49;;;;;;;12.32;7.80;;;;;;;-6.04;90.04;98769.28;5069257;28;20052;-61
2022/02/12 05:24:16;;;;;;;15.02;7.50;;;;;;;-6.17;89.97;98767.50;5072936;28;20071;-61
2022/02/12 05:26:42;;;;;;;13.32;8.18;;;;;;;-6.21;90.61;98773.97;5076817;28;20044;-59
2022/02/12 05:29:09;;;;;;;16.38;8.60;;;;;;;-6.19;90.72;98771.22;5067971;28;20044;-59
2022/02/12 05:31:36;;;;;;;19.17;9.65;;;;;;;-6.22;90.70;98768.78;5072226;28;20040;-60
2022/02/12 05:34:03;;;;;;;21.80;10.25;;;;;;;-6.48;90.47;98774.13;5085634;28;20073;-60
2022/02/12 05:36:29;;;;;;;22.58;8.90;;;;;;;-6.10;91.47;98765.28;5076946;28;20431;-58
2022/02/12 05:38:56;;;;;;;18.02;9.10;;;;;;;-6.13;90.88;98762.84;5087697;28;20266;-60
2022/02/12 05:41:23;;;;;;;23.00;13.00;;;;;;;-6.02;91.35;98759.41;5086672;28;20392;-60
2022/02/12 05:43:49;;;;;;;23.80;10.85;;;;;;;-6.13;90.34;98757.56;5087123;28;20043;-58
2022/02/12 05:46:16;;;;;;;19.02;9.07;;;;;;;-6.19;90.39;98747.50;5088042;28;20040;-60
2022/02/12 05:48:43;;;;;;;21.08;9.57;;;;;;;-6.17;90.85;98746.41;5085243;28;20751;-60
2022/02/12 05:51:10;;;;;;;18.10;10.07;;;;;;;-6.25;90.85;98745.28;5086660;28;20040;-60
2022/02/12 05:53:38;;;;;;;16.75;8.13;;;;;;;-6.18;90.96;98750.03;5088171;28;20085;-60
2022/02/12 05:56:04;;;;;;;22.77;10.93;;;;;;;-6.16;90.62;98742.00;5086192;28;20185;-61
2022/02/12 05:58:31;;;;;;;11.85;8.80;;;;;;;-6.21;90.35;98744.09;5088326;28;20051;-60
2022/02/12 06:00:57;;;;;;;19.52;9.65;;;;;;;-6.22;90.16;98739.78;5101194;28;20043;-58
2022/02/12 06:03:24;;;;;;;15.32;8.02;;;;;;;-6.36;89.52;98740.78;5087764;28;20073;-60
2022/02/12 06:05:50;;;;;;;20.92;9.20;;;;;;;-6.37;90.49;98734.69;5067972;28;20082;-60
2022/02/12 06:08:17;;;;;;;16.55;9.07;;;;;;;-6.47;90.35;98737.13;5070521;28;20047;-60
2022/02/12 06:10:45;;;;;;;18.85;8.50;;;;;;;-6.46;90.18;98727.41;5086665;28;20050;-63
2022/02/12 06:13:11;;;;;;;18.58;9.43;;;;;;;-6.30;90.85;98724.53;5087170;28;20032;-63
2022/02/12 06:15:38;;;;;;;22.00;9.70;;;;;;;-6.26;90.98;98731.28;5071750;28;20062;-63
2022/02/12 06:18:05;;;;;;;17.15;9.93;;;;;;;-6.33;89.87;98732.66;5087094;28;20051;-63
2022/02/12 06:20:32;;;;;;;21.50;10.30;;;;;;;-6.37;89.79;98732.03;5070508;28;20447;-63
2022/02/12 06:22:59;;;;;;;24.30;8.80;;;;;;;-6.30;90.08;98737.72;5067652;28;20458;-63
2022/02/12 06:25:26;;;;;;;15.63;9.00;;;;;;;-6.37;89.78;98737.31;5076318;28;20059;-63
2022/02/12 06:27:53;;;;;;;15.57;8.73;;;;;;;-6.57;89.15;98749.25;5067097;28;20044;-63
2022/02/12 06:30:20;;;;;;;16.92;9.35;;;;;;;-6.55;90.87;98753.50;5086036;28;20052;-63
2022/02/12 06:32:46;;;;;;;13.05;7.70;;;;;;;-6.52;90.42;98733.97;5073581;28;20710;-63
2022/02/12 06:35:13;;;;;;;19.83;10.27;;;;;;;-6.51;90.64;98748.84;5067047;28;20045;-63
2022/02/12 06:37:40;;;;;;;16.92;10.15;;;;;;;-6.46;90.42;98744.06;5081195;28;20085;-63
2022/02/12 06:40:07;;;;;;;25.20;9.77;;;;;;;-6.45;90.55;98737.84;5070166;28;20051;-62
2022/02/12 06:42:33;;;;;;;18.35;9.55;;;;;;;-6.34;90.89;98742.34;5082456;28;20048;-63
2022/02/12 06:45:00;;;;;;;23.05;10.20;;;;;;;-6.33;90.44;98740.56;5085513;28;20063;-65
2022/02/12 06:47:27;;;;;;;21.60;10.85;;;;;;;-6.31;90.39;98739.50;5082407;28;20048;-62
2022/02/12 06:49:54;;;;;;;22.10;10.07;;;;;;;-6.20;90.62;98735.25;5084804;28;20044;-65
2022/02/12 06:52:20;;;;;;;21.60;11.23;;;;;;;-6.35;89.67;98737.22;5079959;28;20050;-62
2022/02/12 06:54:47;;;;;;;19.55;9.82;;;;;;;-6.41;89.62;98736.66;5081553;28;20044;-64
2022/02/12 06:57:13;;;;;;;17.73;9.77;;;;;;;-6.53;89.50;98742.81;5091293;28;20040;-63
2022/02/12 06:59:42;;;;;;;17.40;8.77;;;;;;;-6.57;89.47;98741.34;5088377;28;20052;-64
2022/02/12 07:02:08;;;;;;;18.55;9.90;;;;;;;-6.41;90.65;98744.59;5085101;28;20036;-64
2022/02/12 07:04:35;;;;;;;21.23;10.57;;;;;;;-6.45;89.65;98735.22;5073387;28;20102;-64
2022/02/12 07:07:02;;;;;;;22.65;10.63;;;;;;;-6.41;90.17;98733.22;5084690;28;20460;-63
2022/02/12 07:09:29;;;;;;;18.52;9.55;;;;;;;-6.31;90.05;98736.00;5090855;28;20076;-64
2022/02/12 07:11:55;;;;;;;21.55;9.93;;;;;;;-6.12;89.96;98739.97;5083932;28;20070;-64
2022/02/12 07:14:22;;;;;;;24.52;11.88;;;;;;;-6.29;89.24;98736.75;5083670;28;20044;-64
2022/02/12 07:16:48;;;;;;;20.77;11.13;;;;;;;-6.08;90.78;98741.44;5083506;28;20068;-64
2022/02/12 07:19:15;;;;;;;22.50;10.85;;;;;;;-6.11;89.55;98736.38;5071618;28;20053;-64
2022/02/12 07:21:41;;;;;;;25.23;10.38;;;;;;;-6.08;89.39;98738.78;5066548;28;20040;-64
2022/02/12 07:24:08;;;;;;;24.67;12.00;;;;;;;-6.18;88.66;98744.75;5074084;28;20040;-64
2022/02/12 07:26:35;;;;;;;18.02;10.38;;;;;;;-6.03;88.94;98741.94;5073989;28;20048;-63
2022/02/12 07:29:02;;;;;;;14.90;9.43;;;;;;;-5.99;89.06;98740.72;5074674;28;20583;-63
2022/02/12 07:31:28;;;;;;;25.85;12.05;;;;;;;-5.81;89.21;98735.06;5086184;28;20043;-63
2022/02/12 07:33:55;;;;;;;20.55;11.98;;;;;;;-5.71;88.76;98738.72;5069178;28;20044;-63
2022/02/12 07:36:21;;;;;;;21.00;13.25;;;;;;;-5.56;88.50;98734.09;5085346;28;20048;-64
2022/02/12 07:38:48;;;;;;;33.70;14.70;;;;;;;-5.67;88.67;98731.38;5082328;28;20063;-64
2022/02/12 07:41:16;;;;;;;24.13;12.32;;;;;;;-5.55;89.19;98740.19;5075080;28;20652;-64
2022/02/12 07:43:46;;;;;;;25.38;12.25;;;;;;;-5.45;88.79;98738.56;5082469;28;20392;-64
2022/02/12 07:46:13;;;;;;;21.27;12.10;;;;;;;-5.37;88.55;98730.03;5078597;28;20047;-64
2022/02/12 07:48:40;;;;;;;24.52;13.38;;;;;;;-5.40;88.19;98740.81;5083275;28;20067;-54
2022/02/12 07:51:07;;;;;;;25.90;13.50;;;;;;;-5.44;89.51;98740.22;5071073;28;20048;-53
2022/02/12 07:53:34;;;;;;;24.63;13.60;;;;;;;-5.25;89.90;98741.47;5081737;28;20052;-48
2022/02/12 07:56:01;;;;;;;28.48;14.93;;;;;;;-5.11;89.83;98728.06;5095511;28;20075;-57
2022/02/12 07:58:28;;;;;;;21.33;12.73;;;;;;;-5.00;89.12;98737.81;5089712;28;20097;-55
2022/02/12 08:00:54;;;;;;;34.38;15.07;;;;;;;-4.93;89.21;98738.16;5092473;28;20179;-56
2022/02/12 08:03:21;;;;;;;28.50;13.27;;;;;;;-4.89;89.23;98733.47;5077581;28;20044;-54
2022/02/12 08:05:47;;;;;;;23.85;13.60;;;;;;;-4.66;90.18;98734.31;5069049;28;20059;-63
2022/02/12 08:08:14;;;;;;;31.05;13.50;;;;;;;-4.37;89.03;98736.47;5078589;28;20048;-65
2022/02/12 08:13:26;;;;;;;20.33;11.82;;;;;;;-4.44;89.03;98736.13;5095208;28;20063;-62
2022/02/12 08:15:53;;;;;;;20.17;10.55;;;;;;;-4.29;89.61;98722.63;5088338;28;20796;-60
2022/02/12 08:18:20;;;;;;;25.80;13.75;;;;;;;-4.14;89.69;98719.69;5104573;28;20058;-61
2022/02/12 08:20:47;;;;;;;22.58;12.55;;;;;;;-4.07;89.85;98718.22;5084198;28;20048;-62
2022/02/12 08:23:14;;;;;;;27.00;13.63;;;;;;;-3.92;90.32;98716.13;5085780;28;20040;-63
2022/02/12 08:25:40;;;;;;;24.13;12.00;;;;;;;-3.79;89.74;98723.94;5075946;28;20044;-63
2022/02/12 08:28:07;;;;;;;22.40;12.90;;;;;;;-3.68;89.48;98730.97;5078186;28;20388;-63
2022/02/12 08:30:34;;;;;;;27.83;15.20;;;;;;;-3.51;90.34;98736.69;5074853;28;20439;-63
2022/02/12 08:33:00;;;;;;;29.27;14.32;;;;;;;-3.45;89.74;98742.31;5079310;28;20032;-63
2022/02/12 08:35:47;;;;;;;35.85;16.65;;;;;;;-3.29;90.42;98741.84;5088660;28;20101;-63
2022/02/12 08:38:13;;;;;;;35.20;20.27;;;;;;;-3.05;90.48;98730.16;5083254;28;20044;-63
2022/02/12 08:40:40;;;;;;;33.28;17.08;;;;;;;-2.94;89.87;98725.75;5080836;28;20044;-63
2022/02/12 08:43:07;;;;;;;29.42;16.25;;;;;;;-2.79;90.35;98723.59;5088718;28;20039;-63
2022/02/12 08:45:34;;;;;;;26.90;13.55;;;;;;;-2.45;90.73;98710.03;5096156;28;20047;-63
2022/02/12 08:48:01;;;;;;;30.40;12.80;;;;;;;-2.32;89.51;98717.72;5076842;28;20040;-63
2022/02/12 08:50:27;;;;;;;28.80;15.25;;;;;;;-2.26;88.97;98709.25;5079826;28;20816;-63
2022/02/12 08:52:54;;;;;;;29.83;10.88;;;;;;;-2.07;88.93;98704.13;5096905;28;20650;-63
2022/02/12 08:55:20;;;;;;;23.38;10.65;;;;;;;-1.80;88.70;98699.94;5105069;28;20100;-63
2022/02/12 08:57:47;;;;;;;19.58;9.25;;;;;;;-1.63;88.09;98701.03;5072950;28;20048;-63
2022/02/12 09:00:14;;;;;;;19.83;7.47;;;;;;;-1.51;87.61;98699.91;5093477;28;20052;-63
2022/02/12 09:03:01;;;;;;;15.43;7.20;;;;;;;-1.37;86.78;98689.84;5095407;28;20543;-64
2022/02/12 09:05:27;;;;;;;22.55;7.30;;;;;;;-1.20;86.27;98691.78;5099470;28;20755;-63
2022/02/12 09:07:54;;;;;;;16.50;6.35;;;;;;;-1.11;85.35;98686.56;5081177;28;20054;-64
2022/02/12 09:10:21;;;;;;;16.50;6.15;;;;;;;-0.98;84.09;98697.72;5085579;28;20058;-64
2022/02/12 09:12:48;;;;;;;11.85;5.90;;;;;;;-0.84;83.51;98695.56;5084740;28;20043;-64
2022/02/12 09:15:14;;;;;;;13.85;5.43;;;;;;;-0.69;81.87;98694.13;5085123;28;20093;-64
2022/02/12 09:17:41;;;;;;;8.38;4.38;;;;;;;-0.59;81.33;98701.22;5102428;28;20047;-64
2022/02/12 09:20:08;;;;;;;13.32;5.38;;;;;;;-0.45;80.48;98692.75;5107569;28;20046;-64
2022/02/12 09:22:34;;;;;;;13.18;5.30;;;;;;;-0.33;81.45;98693.38;5099134;28;20043;-64
2022/02/12 09:25:01;;;;;;;11.52;4.93;;;;;;;-0.25;79.65;98686.47;5100081;28;20066;-64
2022/02/12 09:27:28;;;;;;;14.23;6.22;;;;;;;-0.18;80.21;98683.03;5089729;28;20639;-63
2022/02/12 09:29:58;;;;;;;14.93;5.78;;;;;;;-0.15;79.55;98685.41;5086744;28;20392;-64
2022/02/12 09:32:26;;;;;;;9.63;5.63;;;;;;;-0.09;79.19;98689.31;5083649;28;20123;-63
2022/02/12 09:34:53;;;;;;;12.52;5.30;;;;;;;0.00;79.70;98679.59;5084442;28;20035;-64
2022/02/12 09:37:19;;;;;;;9.43;4.70;;;;;;;0.06;78.88;98681.63;5087486;28;20552;-63
2022/02/12 09:39:46;;;;;;;10.52;5.32;;;;;;;0.22;77.81;98693.44;5090167;28;20032;-63
2022/02/12 09:42:14;;;;;;;9.85;4.78;;;;;;;0.32;77.52;98672.88;5089786;28;20574;-64
2022/02/12 09:44:42;;;;;;;12.40;5.50;;;;;;;0.41;76.55;98679.13;5094836;28;20048;-63
2022/02/12 09:47:42;;;;;;;12.57;4.82;;;;;;;0.50;76.34;98669.34;5091230;28;20056;-63
2022/02/12 09:50:08;;;;;;;12.65;5.32;;;;;;;0.61;75.99;98670.91;5091552;28;20099;-64
2022/02/12 09:52:36;;;;;;;9.63;5.13;;;;;;;0.66;75.13;98670.47;5091949;28;20044;-63
2022/02/12 09:55:04;;;;;;;9.38;4.63;;;;;;;0.70;74.96;98675.31;5075247;28;20048;-60
2022/02/12 09:57:31;;;;;;;10.93;4.30;;;;;;;0.82;74.77;98675.91;5085224;28;20111;-66
2022/02/12 10:00:00;;;;;;;10.70;5.18;;;;;;;0.90;74.17;98661.78;5079309;28;20043;-64
2022/02/12 10:02:27;;;;;;;10.38;4.70;;;;;;;0.99;73.68;98668.84;5084180;28;20496;-65
2022/02/12 10:05:29;;;;;;;10.30;4.28;;;;;;;1.06;73.56;98661.03;5089691;28;20046;-63
2022/02/12 10:08:02;;;;;;;8.48;4.28;;;;;;;1.17;73.45;98655.44;4989576;28;20054;-65
2022/02/12 10:10:32;;;;;;;13.18;5.15;;;;;;;1.24;73.68;98652.13;5073688;28;20056;-63
2022/02/12 10:13:12;;;;;;;10.95;4.43;;;;;;;1.33;73.54;98645.00;5080332;28;20048;-64
2022/02/12 10:15:41;;;;;;;13.10;5.55;;;;;;;1.38;72.28;98645.34;5082390;28;20032;-65
2022/02/12 10:18:08;;;;;;;11.45;4.43;;;;;;;1.39;72.63;98639.84;5088272;28;20044;-65
2022/02/12 10:20:36;;;;;;;11.20;4.53;;;;;;;1.49;71.68;98639.72;5092661;28;20127;-64
2022/02/12 10:23:20;;;;;;;15.45;4.60;;;;;;;1.60;71.54;98635.06;5081022;28;20047;-65
2022/02/12 10:25:49;;;;;;;8.48;4.28;;;;;;;1.64;70.42;98631.91;5093340;28;20051;-65
2022/02/12 10:28:18;;;;;;;14.93;5.50;;;;;;;1.64;71.87;98626.56;5101444;28;20434;-64
2022/02/12 10:30:46;;;;;;;14.45;6.63;;;;;;;1.67;74.00;98630.75;5100695;28;20048;-63
2022/02/12 10:33:14;;;;;;;12.48;6.22;;;;;;;1.55;74.18;98627.56;5082654;28;20040;-63
2022/02/12 10:35:41;;;;;;;11.95;6.80;;;;;;;1.62;74.65;98617.88;5094928;28;20538;-63
2022/02/12 10:38:15;;;;;;;14.85;7.20;;;;;;;1.55;74.23;98616.88;5082877;28;20633;-63
2022/02/12 10:41:02;;;;;;;13.65;6.93;;;;;;;1.65;74.40;98612.22;5084212;28;20510;-65
2022/02/12 10:43:29;;;;;;;15.23;7.38;;;;;;;1.76;73.95;98605.72;5095895;28;20058;-64
2022/02/12 10:45:56;;;;;;;12.65;7.47;;;;;;;1.69;73.85;98602.03;5078453;28;20539;-65
2022/02/12 10:48:24;;;;;;;15.13;7.85;;;;;;;1.76;73.45;98603.06;5092377;28;20609;-65
2022/02/12 10:51:02;;;;;;;19.02;7.95;;;;;;;1.88;73.75;98597.41;5077835;28;20051;-65
2022/02/12 10:53:29;;;;;;;19.15;8.15;;;;;;;1.92;73.69;98601.44;5103845;28;20460;-64
2022/02/12 10:56:03;;;;;;;12.07;7.07;;;;;;;1.91;73.55;98591.72;5089895;28;20123;-63
2022/02/12 10:58:31;;;;;;;20.70;8.93;;;;;;;1.91;74.33;98591.72;5091883;28;20535;-64
2022/02/12 11:00:59;;;;;;;18.60;7.43;;;;;;;1.94;73.32;98586.91;5085634;28;20055;-65
2022/02/12 11:03:27;;;;;;;18.52;7.50;;;;;;;1.98;73.40;98582.03;5086126;28;20577;-65
2022/02/12 11:05:54;;;;;;;16.23;8.43;;;;;;;2.06;72.56;98582.06;5089295;28;20085;-65
2022/02/12 11:08:23;;;;;;;20.38;8.30;;;;;;;2.17;71.84;98572.88;5082725;28;20514;-62
2022/02/12 11:10:50;;;;;;;12.85;7.90;;;;;;;2.25;71.82;98563.19;5090472;28;20047;-62
2022/02/12 11:13:19;;;;;;;14.10;6.80;;;;;;;2.36;70.75;98560.13;5082160;28;20044;-63
2022/02/12 11:15:46;;;;;;;13.38;6.78;;;;;;;2.34;71.35;98552.31;5082304;28;20051;-64
2022/02/12 11:18:19;;;;;;;17.13;6.70;;;;;;;2.43;70.87;98550.44;5077978;28;20461;-63
2022/02/12 11:20:47;;;;;;;12.65;6.70;;;;;;;2.56;69.76;98539.22;5092035;28;20036;-64
2022/02/12 11:23:20;;;;;;;11.43;6.35;;;;;;;2.70;68.77;98537.66;5086055;28;20088;-62
2022/02/12 11:25:48;;;;;;;12.40;5.22;;;;;;;2.82;67.01;98538.16;5081451;28;20048;-64
2022/02/12 11:28:17;;;;;;;9.38;5.13;;;;;;;2.94;66.97;98527.03;5084448;28;20047;-64
2022/02/12 11:30:45;;;;;;;9.30;5.63;;;;;;;2.98;66.37;98521.19;5087564;28;20076;-63
2022/02/12 11:33:21;;;;;;;17.75;7.43;;;;;;;3.13;65.52;98512.41;5089554;28;20048;-64
2022/02/12 11:36:12;;;;;;;10.57;4.65;;;;;;;3.19;64.27;98502.84;5094177;28;20519;-64
2022/02/12 11:38:42;;;;;;;8.20;4.38;;;;;;;3.25;64.03;98499.47;5083460;28;20044;-64